createdAt,value
2023-05-02T00:00:23.963Z,14.20
2023-05-02T00:04:11.172Z,15.10
2023-05-02T00:07:38.681Z,14.20
2023-05-02T00:11:06.654Z,15.80
2023-05-02T00:14:33.468Z,15.10
2023-05-02T00:18:00.567Z,13.60
2023-05-02T00:21:29.344Z,15.20
2023-05-02T00:25:00.215Z,14.60
2023-05-02T00:28:27.714Z,14.20
2023-05-02T00:31:54.599Z,13.80
2023-05-02T00:35:21.971Z,13.40
2023-05-02T00:38:49.009Z,15.30
2023-05-02T00:42:16.398Z,12.80
2023-05-02T00:45:46.285Z,13.40
2023-05-02T00:49:13.302Z,13.00
2023-05-02T00:52:40.833Z,12.90
2023-05-02T00:56:10.352Z,13.20
2023-05-02T00:59:38.997Z,13.00
2023-05-02T01:03:14.194Z,13.10
2023-05-02T01:07:03.685Z,12.70
2023-05-02T01:10:42.439Z,11.20
2023-05-02T01:14:12.717Z,11.60
2023-05-02T01:17:40.899Z,11.80
2023-05-02T01:21:11.182Z,12.00
2023-05-02T01:24:46.691Z,12.50
2023-05-02T01:28:23.175Z,11.70
2023-05-02T01:31:52.512Z,11.20
2023-05-02T01:35:22.517Z,11.80
2023-05-02T01:42:18.853Z,11.10
2023-05-02T01:45:48.483Z,11.60
2023-05-02T01:49:15.988Z,11.10
2023-05-02T01:52:43.803Z,10.80
2023-05-02T01:56:11.298Z,12.40
2023-05-02T01:59:41.790Z,11.60
2023-05-02T02:03:10.542Z,11.60
2023-05-02T02:06:38.015Z,11.30
2023-05-02T02:10:05.990Z,11.60
2023-05-02T02:13:36.858Z,11.50
2023-05-02T02:17:07.264Z,11.50
2023-05-02T02:20:36.256Z,11.30
2023-05-02T02:24:06.592Z,11.80
2023-05-02T02:27:33.634Z,10.80
2023-05-02T02:31:01.109Z,11.70
2023-05-02T02:34:28.482Z,11.30
2023-05-02T02:38:09.839Z,10.80
2023-05-02T02:41:45.913Z,12.10
2023-05-02T02:45:24.664Z,11.20
2023-05-02T02:48:58.822Z,11.40
2023-05-02T02:52:34.270Z,12.00
2023-05-02T02:56:06.569Z,11.30
2023-05-02T02:59:36.546Z,11.80
2023-05-02T03:03:03.569Z,11.50
2023-05-02T03:06:30.977Z,12.60
2023-05-02T03:09:58.397Z,12.40
2023-05-02T03:13:25.815Z,14.00
2023-05-02T03:16:53.058Z,12.50
2023-05-02T03:20:20.531Z,12.40
2023-05-02T03:23:47.909Z,13.60
2023-05-02T03:27:15.942Z,13.20
2023-05-02T03:30:43.356Z,12.40
2023-05-02T03:34:10.256Z,13.40
2023-05-02T03:37:38.260Z,13.90
2023-05-02T03:41:05.865Z,14.50
2023-05-02T03:44:33.012Z,12.50
2023-05-02T03:48:00.246Z,14.60
2023-05-02T03:51:28.156Z,14.00
2023-05-02T03:54:55.557Z,14.00
2023-05-02T03:58:22.649Z,13.90
2023-05-02T04:01:53.021Z,13.80
2023-05-02T04:05:25.615Z,14.00
2023-05-02T04:08:52.778Z,13.90
2023-05-02T04:12:21.246Z,13.60
2023-05-02T04:19:20.064Z,13.20
2023-05-02T04:22:48.046Z,13.20
2023-05-02T04:26:16.396Z,12.90
2023-05-02T04:29:55.536Z,13.60
2023-05-02T04:33:22.771Z,12.60
2023-05-02T04:36:50.395Z,11.90
2023-05-02T04:40:21.698Z,12.10
2023-05-02T04:43:52.247Z,12.20
2023-05-02T04:47:19.719Z,11.90
2023-05-02T04:50:48.152Z,10.80
2023-05-02T04:54:15.888Z,11.80
2023-05-02T04:57:43.546Z,11.30
2023-05-02T05:01:14.154Z,12.00
2023-05-02T05:04:41.793Z,11.50
2023-05-02T05:08:09.757Z,13.30
2023-05-02T05:11:39.400Z,13.20
2023-05-02T05:15:08.658Z,12.30
2023-05-02T05:18:40.681Z,11.40
2023-05-02T05:22:10.624Z,11.50
2023-05-02T05:25:37.773Z,11.40
2023-05-02T05:29:04.856Z,12.20
2023-05-02T05:32:38.175Z,12.30
2023-05-02T05:36:10.811Z,12.10
2023-05-02T05:39:38.054Z,12.00
2023-05-02T05:43:06.038Z,12.70
2023-05-02T05:46:36.292Z,11.00
2023-05-02T05:50:05.397Z,12.00
2023-05-02T05:53:32.626Z,11.80
2023-05-02T05:57:01.583Z,12.00
2023-05-02T06:00:29.063Z,11.40
2023-05-02T06:03:56.400Z,11.10
2023-05-02T06:07:23.391Z,11.30
2023-05-02T06:10:50.391Z,13.30
2023-05-02T06:14:18.004Z,10.90
2023-05-02T06:17:47.342Z,11.50
2023-05-02T06:21:15.951Z,10.10
2023-05-02T06:24:43.020Z,10.00
2023-05-02T06:28:10.235Z,8.50
2023-05-02T06:31:37.384Z,9.00
2023-05-02T06:35:04.936Z,8.00
2023-05-02T06:38:32.508Z,7.80
2023-05-02T06:42:01.490Z,8.50
2023-05-02T06:48:54.864Z,7.90
2023-05-02T06:52:21.919Z,8.00
2023-05-02T06:55:49.827Z,18.20
2023-05-02T06:59:17.778Z,17.60
2023-05-02T07:02:45.490Z,13.60
2023-05-02T07:06:12.595Z,13.80
2023-05-02T07:09:39.660Z,8.20
2023-05-02T07:13:06.625Z,7.90
2023-05-02T07:16:34.067Z,7.20
2023-05-02T07:20:01.428Z,6.70
2023-05-02T07:23:28.968Z,6.30
2023-05-02T07:26:55.931Z,8.30
2023-05-02T07:30:22.820Z,8.50
2023-05-02T07:33:49.615Z,11.40
2023-05-02T07:37:16.719Z,12.90
2023-05-02T07:40:43.705Z,13.40
2023-05-02T07:44:10.634Z,18.20
2023-05-02T07:47:37.793Z,12.50
2023-05-02T07:51:11.528Z,8.40
2023-05-02T07:54:38.781Z,7.50
2023-05-02T07:58:05.538Z,6.60
2023-05-02T08:01:32.400Z,6.50
2023-05-02T08:04:59.588Z,7.30
2023-05-02T08:08:26.789Z,6.60
2023-05-02T08:11:53.787Z,6.90
2023-05-02T08:15:21.019Z,6.80
2023-05-02T08:18:47.976Z,7.10
2023-05-02T08:22:15.198Z,7.20
2023-05-02T08:25:42.396Z,6.50
2023-05-02T08:29:11.650Z,6.50
2023-05-02T08:32:39.450Z,6.80
2023-05-02T08:36:16.317Z,7.30
2023-05-02T08:39:43.420Z,7.30
2023-05-02T08:43:11.922Z,6.90
2023-05-02T08:46:42.594Z,6.30
2023-05-02T08:50:12.153Z,6.40
2023-05-02T08:53:40.559Z,6.20
2023-05-02T08:57:08.936Z,6.60
2023-05-02T09:00:39.144Z,6.00
2023-05-02T09:04:06.467Z,6.20
2023-05-02T09:07:42.730Z,6.10
2023-05-02T09:11:11.588Z,6.30
2023-05-02T09:14:38.775Z,5.40
2023-05-02T09:18:06.029Z,6.00
2023-05-02T09:21:41.451Z,5.50
2023-05-02T09:25:09.908Z,5.60
2023-05-02T09:28:45.375Z,5.30
2023-05-02T09:32:12.299Z,6.00
2023-05-02T09:35:54.559Z,5.30
2023-05-02T09:39:25.940Z,5.50
2023-05-02T09:42:53.561Z,6.60
2023-05-02T09:46:20.672Z,5.60
2023-05-02T09:49:49.799Z,5.50
2023-05-02T09:53:16.747Z,5.30
2023-05-02T09:56:57.410Z,5.70
2023-05-02T10:00:25.001Z,5.70
2023-05-02T10:03:52.428Z,5.50
2023-05-02T10:07:20.541Z,5.00
2023-05-02T10:10:51.501Z,5.10
2023-05-02T10:14:21.015Z,4.70
2023-05-02T10:21:27.444Z,4.70
2023-05-02T10:24:56.239Z,4.60
2023-05-02T10:28:24.165Z,4.10
2023-05-02T10:31:52.943Z,3.80
2023-05-02T10:35:20.413Z,4.50
2023-05-02T10:38:48.669Z,4.60
2023-05-02T10:42:18.311Z,4.10
2023-05-02T10:49:12.650Z,3.80
2023-05-02T10:52:41.441Z,3.50
2023-05-02T10:56:15.494Z,3.30
2023-05-02T10:59:43.721Z,2.80
2023-05-02T11:03:10.747Z,2.90
2023-05-02T11:06:59.120Z,2.40
2023-05-02T11:10:30.683Z,2.80
2023-05-02T11:13:57.615Z,2.50
2023-05-02T11:17:25.241Z,2.20
2023-05-02T11:20:52.301Z,2.30
2023-05-02T11:24:40.324Z,1.80
2023-05-02T11:28:29.755Z,2.10
2023-05-02T11:31:58.255Z,1.90
2023-05-02T11:35:27.454Z,2.10
2023-05-02T11:38:55.525Z,2.70
2023-05-02T11:42:33.522Z,2.50
2023-05-02T11:46:03.108Z,2.50
2023-05-02T11:49:32.493Z,2.30
2023-05-02T11:53:00.058Z,2.20
2023-05-02T11:56:28.353Z,2.90
2023-05-02T11:59:57.221Z,2.40
2023-05-02T12:03:31.399Z,2.30
2023-05-02T12:07:00.971Z,3.00
2023-05-02T12:10:38.610Z,3.10
2023-05-02T12:14:07.155Z,2.90
2023-05-02T12:17:36.700Z,3.70
2023-05-02T12:21:04.541Z,4.40
2023-05-02T12:24:32.088Z,4.60
2023-05-02T12:28:06.034Z,4.80
2023-05-02T12:31:33.437Z,4.20
2023-05-02T12:35:01.706Z,4.90
2023-05-02T12:38:29.741Z,5.90
2023-05-02T12:41:56.734Z,6.00
2023-05-02T12:45:23.985Z,5.80
2023-05-02T12:49:05.643Z,5.50
2023-05-02T12:52:57.769Z,5.90
2023-05-02T12:56:27.758Z,6.40
2023-05-02T12:59:56.554Z,7.20
2023-05-02T13:03:24.622Z,6.40
2023-05-02T13:06:52.584Z,6.00
2023-05-02T13:10:20.043Z,5.80
2023-05-02T13:13:47.024Z,5.80
2023-05-02T13:17:14.780Z,5.80
2023-05-02T13:20:41.694Z,5.90
2023-05-02T13:24:09.357Z,5.90
2023-05-02T13:27:36.350Z,5.40
2023-05-02T13:31:03.746Z,3.80
2023-05-02T13:34:31.147Z,5.00
2023-05-02T13:37:58.018Z,3.90
2023-05-02T13:41:25.311Z,4.60
2023-05-02T13:44:52.255Z,3.80
2023-05-02T13:48:19.294Z,3.90
2023-05-02T13:51:46.478Z,3.00
2023-05-02T13:55:13.884Z,3.70
2023-05-02T13:58:40.872Z,3.50
2023-05-02T14:02:08.432Z,2.90
2023-05-02T14:05:36.891Z,2.40
2023-05-02T14:09:04.096Z,2.40
2023-05-02T14:12:31.712Z,2.60
2023-05-02T14:15:59.447Z,2.20
2023-05-02T14:19:26.466Z,2.50
2023-05-02T14:22:53.545Z,2.10
2023-05-02T14:26:20.938Z,2.60
2023-05-02T14:29:48.660Z,2.20
2023-05-02T14:33:15.684Z,2.60
2023-05-02T14:36:42.960Z,2.00
2023-05-02T14:40:12.706Z,1.40
2023-05-02T14:43:39.688Z,1.70
2023-05-02T14:47:06.720Z,1.80
2023-05-02T14:50:33.991Z,1.90
2023-05-02T14:54:01.666Z,1.50
2023-05-02T14:57:28.828Z,3.90
2023-05-02T15:00:55.963Z,2.30
2023-05-02T15:04:24.155Z,10.30
2023-05-02T15:07:51.442Z,2.50
2023-05-02T15:11:18.744Z,1.40
2023-05-02T15:14:45.730Z,3.80
2023-05-02T15:18:13.042Z,2.50
2023-05-02T15:21:40.196Z,23.60
2023-05-02T15:25:08.709Z,2.70
2023-05-02T15:28:35.894Z,1.40
2023-05-02T15:32:03.144Z,1.30
2023-05-02T15:35:31.505Z,1.60
2023-05-02T15:38:58.370Z,1.80
2023-05-02T15:42:25.271Z,2.00
2023-05-02T15:45:55.850Z,1.90
2023-05-02T15:49:24.498Z,1.70
2023-05-02T15:52:51.619Z,1.70
2023-05-02T15:56:18.876Z,1.60
2023-05-02T15:59:45.718Z,2.50
2023-05-02T16:03:13.289Z,3.20
2023-05-02T16:06:41.626Z,3.90
2023-05-02T16:10:10.993Z,1.60
2023-05-02T16:13:38.742Z,1.40
2023-05-02T16:17:05.808Z,1.80
2023-05-02T16:20:36.645Z,1.90
2023-05-02T16:24:03.993Z,2.10
2023-05-02T16:27:30.983Z,2.90
2023-05-02T16:30:58.200Z,2.80
2023-05-02T16:34:25.885Z,3.10
2023-05-02T16:37:52.922Z,2.50
2023-05-02T16:41:19.946Z,1.90
2023-05-02T16:44:46.969Z,2.80
2023-05-02T16:48:15.981Z,2.70
2023-05-02T16:55:26.149Z,2.90
2023-05-02T16:58:54.229Z,3.20
2023-05-02T17:02:22.709Z,3.30
2023-05-02T17:05:52.407Z,3.50
2023-05-02T17:09:20.642Z,4.40
2023-05-02T17:12:48.880Z,3.70
2023-05-02T17:16:17.989Z,4.20
2023-05-02T17:19:46.283Z,5.30
2023-05-02T17:23:15.037Z,4.50
2023-05-02T17:26:44.783Z,3.70
2023-05-02T17:30:20.149Z,3.80
2023-05-02T17:33:50.643Z,3.50
2023-05-02T17:37:20.771Z,4.20
2023-05-02T17:40:48.902Z,4.40
2023-05-02T17:44:17.956Z,3.60
2023-05-02T17:47:46.538Z,4.60
2023-05-02T17:51:14.795Z,4.70
2023-05-02T17:54:44.102Z,3.50
2023-05-02T17:58:14.046Z,4.10
2023-05-02T18:01:42.490Z,4.40
2023-05-02T18:05:12.392Z,4.50
2023-05-02T18:08:39.532Z,4.60
2023-05-02T18:12:07.062Z,4.50
2023-05-02T18:15:35.108Z,3.60
2023-05-02T18:19:03.014Z,4.30
2023-05-02T18:22:30.258Z,5.00
2023-05-02T18:25:58.213Z,4.00
2023-05-02T18:29:26.861Z,3.40
2023-05-02T18:32:53.832Z,3.30
2023-05-02T18:36:27.299Z,3.50
2023-05-02T18:39:56.350Z,4.10
2023-05-02T18:43:25.167Z,3.60
2023-05-02T18:46:52.333Z,4.00
2023-05-02T18:50:19.818Z,3.80
2023-05-02T18:53:49.122Z,12.20
2023-05-02T18:57:17.093Z,8.60
2023-05-02T19:00:44.413Z,5.20
2023-05-02T19:04:11.868Z,5.00
2023-05-02T19:07:39.176Z,5.40
2023-05-02T19:11:06.900Z,5.00
2023-05-02T19:14:36.997Z,5.70
2023-05-02T19:18:04.067Z,5.90
2023-05-02T19:21:31.964Z,4.90
2023-05-02T19:24:59.822Z,5.20
2023-05-02T19:28:27.395Z,6.50
2023-05-02T19:31:54.518Z,6.10
2023-05-02T19:35:22.002Z,5.20
2023-05-02T19:38:51.186Z,5.90
2023-05-02T19:42:18.374Z,5.00
2023-05-02T19:45:45.856Z,5.70
2023-05-02T19:49:13.091Z,5.50
2023-05-02T19:52:41.825Z,4.10
2023-05-02T19:56:09.425Z,4.40
2023-05-02T19:59:36.518Z,3.80
2023-05-02T20:03:03.685Z,4.00
2023-05-02T20:06:32.085Z,3.80
2023-05-02T20:09:59.392Z,4.50
2023-05-02T20:13:27.287Z,4.40
2023-05-02T20:17:01.812Z,5.00
2023-05-02T20:20:29.110Z,5.70
2023-05-02T20:23:56.064Z,6.60
2023-05-02T20:27:22.970Z,8.00
2023-05-02T20:30:49.988Z,5.50
2023-05-02T20:34:16.992Z,5.60
2023-05-02T20:37:44.092Z,4.90
2023-05-02T20:41:13.031Z,5.50
2023-05-02T20:44:39.938Z,5.20
2023-05-02T20:48:07.267Z,5.20
2023-05-02T20:51:34.269Z,5.60
2023-05-02T20:55:01.792Z,6.10
2023-05-02T20:58:28.788Z,6.10
2023-05-02T21:01:55.969Z,6.30
2023-05-02T21:05:23.404Z,6.00
2023-05-02T21:08:50.483Z,6.10
2023-05-02T21:12:17.707Z,5.50
2023-05-02T21:15:44.824Z,6.30
2023-05-02T21:19:12.065Z,6.20
2023-05-02T21:22:39.562Z,6.80
2023-05-02T21:26:07.510Z,7.10
2023-05-02T21:29:34.546Z,23.50
2023-05-02T21:33:01.747Z,25.90
2023-05-02T21:36:28.985Z,13.80
2023-05-02T21:39:56.031Z,8.10
2023-05-02T21:43:23.087Z,6.80
2023-05-02T21:46:51.872Z,6.80
2023-05-02T21:50:19.046Z,6.90
2023-05-02T21:53:45.913Z,5.70
2023-05-02T21:57:12.888Z,5.50
2023-05-02T22:00:41.593Z,5.40
2023-05-02T22:04:08.721Z,5.40
2023-05-02T22:07:35.538Z,6.50
2023-05-02T22:11:06.620Z,5.60
2023-05-02T22:14:41.719Z,5.90
2023-05-02T22:18:11.832Z,7.00
2023-05-02T22:21:38.848Z,6.40
2023-05-02T22:25:06.140Z,6.40
2023-05-02T22:28:32.929Z,5.80
2023-05-02T22:31:59.883Z,7.10
2023-05-02T22:35:27.551Z,7.40
2023-05-02T22:38:54.850Z,7.40
2023-05-02T22:42:21.742Z,7.80
2023-05-02T22:45:51.372Z,7.50
2023-05-02T22:49:19.794Z,6.80
2023-05-02T22:52:47.010Z,7.80
2023-05-02T22:56:14.216Z,7.80
2023-05-02T22:59:41.102Z,7.50
2023-05-02T23:03:08.507Z,7.10
2023-05-02T23:06:36.109Z,7.90
2023-05-02T23:10:03.774Z,8.50
2023-05-02T23:13:30.947Z,7.80
2023-05-02T23:16:58.393Z,7.90
2023-05-02T23:20:25.418Z,9.00
2023-05-02T23:23:52.537Z,7.90
2023-05-02T23:27:19.300Z,7.90
2023-05-02T23:30:46.551Z,8.00
2023-05-02T23:34:13.842Z,8.60
2023-05-02T23:37:41.317Z,8.00
2023-05-02T23:41:08.610Z,7.30
2023-05-02T23:44:35.408Z,7.50
2023-05-02T23:48:02.365Z,7.70
2023-05-02T23:51:29.489Z,7.60
2023-05-02T23:54:56.511Z,8.10
2023-05-02T23:58:23.285Z,8.30
